createdAt,value
2023-12-22T00:00:55.948Z,-27.34
2023-12-22T00:03:59.646Z,-27.53
2023-12-22T00:07:03.088Z,-27.66
2023-12-22T00:10:07.550Z,-27.63
2023-12-22T00:13:11.239Z,-27.68
2023-12-22T00:16:14.645Z,-27.49
2023-12-22T00:19:18.344Z,-27.32
2023-12-22T00:22:22.380Z,-27.40
2023-12-22T00:25:26.134Z,-27.36
2023-12-22T00:28:29.662Z,-27.58
2023-12-22T00:31:32.614Z,-28.09
2023-12-22T00:34:36.577Z,-28.22
2023-12-22T00:37:40.565Z,-28.30
2023-12-22T00:40:44.555Z,-27.97
2023-12-22T00:43:48.253Z,-27.72
2023-12-22T00:46:51.848Z,-27.94
2023-12-22T00:49:55.601Z,-28.33
2023-12-22T00:53:00.528Z,-28.42
2023-12-22T00:56:07.836Z,-28.37
2023-12-22T00:59:12.492Z,-27.92
2023-12-22T01:02:17.296Z,-27.70
2023-12-22T01:05:21.202Z,-27.66
2023-12-22T01:08:25.205Z,-27.76
2023-12-22T01:11:29.035Z,-27.59
2023-12-22T01:14:32.430Z,-27.51
2023-12-22T01:17:36.719Z,-27.34
2023-12-22T01:20:40.100Z,-27.36
2023-12-22T01:23:43.670Z,-27.20
2023-12-22T01:26:47.591Z,-27.01
2023-12-22T01:29:50.936Z,-27.02
2023-12-22T01:32:54.421Z,-27.22
2023-12-22T01:35:57.493Z,-27.36
2023-12-22T01:39:01.076Z,-27.36
2023-12-22T01:42:04.260Z,-27.16
2023-12-22T01:45:07.995Z,-26.88
2023-12-22T01:48:12.073Z,-26.52
2023-12-22T01:51:15.415Z,-26.48
2023-12-22T01:54:19.984Z,-26.52
2023-12-22T01:57:24.061Z,-26.17
2023-12-22T02:00:27.740Z,-26.11
2023-12-22T02:03:32.312Z,-26.11
2023-12-22T02:06:37.766Z,-26.07
2023-12-22T02:09:41.290Z,-26.14
2023-12-22T02:12:44.639Z,-25.94
2023-12-22T02:15:54.110Z,-25.71
2023-12-22T02:19:00.743Z,-25.42
2023-12-22T02:22:09.060Z,-25.28
2023-12-22T02:25:12.971Z,-25.26
2023-12-22T02:28:22.295Z,-25.07
2023-12-22T02:31:39.150Z,-25.08
2023-12-22T02:34:45.768Z,-24.73
2023-12-22T02:37:50.640Z,-24.43
2023-12-22T02:40:55.007Z,-24.04
2023-12-22T02:43:58.894Z,-23.84
2023-12-22T02:47:03.041Z,-23.78
2023-12-22T02:50:06.406Z,-23.74
2023-12-22T02:53:10.533Z,-23.68
2023-12-22T02:56:13.502Z,-23.66
2023-12-22T02:59:17.088Z,-23.44
2023-12-22T03:02:20.459Z,-23.57
2023-12-22T03:05:23.762Z,-23.51
2023-12-22T03:08:27.486Z,-23.31
2023-12-22T03:11:31.442Z,-23.11
2023-12-22T03:14:34.998Z,-22.88
2023-12-22T03:17:38.871Z,-22.63
2023-12-22T03:20:41.838Z,-22.54
2023-12-22T03:23:46.031Z,-22.50
2023-12-22T03:26:50.358Z,-22.50
2023-12-22T03:29:54.018Z,-22.58
2023-12-22T03:32:57.074Z,-22.54
2023-12-22T03:36:00.235Z,-22.58
2023-12-22T03:39:04.298Z,-22.53
2023-12-22T03:42:07.336Z,-22.27
2023-12-22T03:45:10.601Z,-22.14
2023-12-22T03:48:14.002Z,-22.20
2023-12-22T03:51:16.987Z,-22.16
2023-12-22T03:54:21.080Z,-22.11
2023-12-22T03:57:28.064Z,-22.23
2023-12-22T04:00:31.681Z,-22.22
2023-12-22T04:03:36.160Z,-22.11
2023-12-22T04:06:43.082Z,-22.22
2023-12-22T04:09:46.077Z,-22.34
2023-12-22T04:12:50.201Z,-22.20
2023-12-22T04:15:53.501Z,-22.19
2023-12-22T04:18:57.109Z,-22.07
2023-12-22T04:22:00.225Z,-22.00
2023-12-22T04:25:04.465Z,-22.00
2023-12-22T04:28:08.111Z,-22.01
2023-12-22T04:31:12.265Z,-21.91
2023-12-22T04:34:18.162Z,-21.79
2023-12-22T04:37:21.221Z,-21.73
2023-12-22T04:40:24.547Z,-21.74
2023-12-22T04:43:27.971Z,-21.70
2023-12-22T04:46:34.067Z,-21.60
2023-12-22T04:49:38.294Z,-21.48
2023-12-22T04:52:42.059Z,-21.34
2023-12-22T04:55:45.810Z,-21.05
2023-12-22T04:58:48.976Z,-20.92
2023-12-22T05:01:52.100Z,-20.91
2023-12-22T05:04:55.794Z,-20.81
2023-12-22T05:07:59.426Z,-20.66
2023-12-22T05:11:02.497Z,-20.54
2023-12-22T05:14:06.459Z,-20.32
2023-12-22T05:17:10.595Z,-20.15
2023-12-22T05:20:14.073Z,-20.06
2023-12-22T05:23:17.880Z,-19.96
2023-12-22T05:26:25.719Z,-19.90
2023-12-22T05:29:29.821Z,-19.91
2023-12-22T05:32:33.561Z,-19.83
2023-12-22T05:35:40.752Z,-19.74
2023-12-22T05:38:44.218Z,-19.74
2023-12-22T05:41:47.877Z,-19.87
2023-12-22T05:44:52.229Z,-19.79
2023-12-22T05:47:56.471Z,-19.81
2023-12-22T05:51:00.280Z,-19.81
2023-12-22T05:54:04.294Z,-19.87
2023-12-22T05:57:08.771Z,-19.78
2023-12-22T06:00:16.903Z,-19.55
2023-12-22T06:03:19.856Z,-19.51
2023-12-22T06:06:23.249Z,-19.54
2023-12-22T06:09:26.930Z,-19.65
2023-12-22T06:12:31.016Z,-19.71
2023-12-22T06:15:34.683Z,-19.68
2023-12-22T06:18:38.797Z,-19.60
2023-12-22T06:21:42.645Z,-19.35
2023-12-22T06:24:49.246Z,-19.31
2023-12-22T06:27:52.231Z,-19.25
2023-12-22T06:30:55.872Z,-19.22
2023-12-22T06:34:04.239Z,-19.25
2023-12-22T06:37:09.958Z,-19.25
2023-12-22T06:40:13.146Z,-19.12
2023-12-22T06:43:16.832Z,-19.09
2023-12-22T06:46:21.974Z,-19.03
2023-12-22T06:49:25.827Z,-18.99
2023-12-22T06:52:28.913Z,-19.00
2023-12-22T06:55:33.213Z,-18.92
2023-12-22T06:58:36.743Z,-18.85
2023-12-22T07:01:40.836Z,-18.83
2023-12-22T07:05:28.329Z,-18.87
2023-12-22T07:08:32.549Z,-18.95
2023-12-22T07:11:38.212Z,-18.98
2023-12-22T07:14:41.873Z,-18.97
2023-12-22T07:17:45.787Z,-18.94
2023-12-22T07:20:50.755Z,-19.04
2023-12-22T07:23:54.494Z,-19.10
2023-12-22T07:26:58.256Z,-19.27
2023-12-22T07:30:02.338Z,-19.44
2023-12-22T07:33:06.342Z,-19.52
2023-12-22T07:36:10.452Z,-19.67
2023-12-22T07:39:14.642Z,-19.72
2023-12-22T07:42:20.152Z,-19.67
2023-12-22T07:45:23.947Z,-19.67
2023-12-22T07:48:31.697Z,-19.66
2023-12-22T07:51:35.416Z,-19.72
2023-12-22T07:54:40.008Z,-19.89
2023-12-22T07:57:43.883Z,-20.04
2023-12-22T08:00:48.557Z,-20.02
2023-12-22T08:03:52.321Z,-20.02
2023-12-22T08:06:56.774Z,-20.06
2023-12-22T08:10:00.439Z,-20.06
2023-12-22T08:13:04.569Z,-20.06
2023-12-22T08:16:08.155Z,-20.26
2023-12-22T08:19:12.318Z,-20.29
2023-12-22T08:22:16.402Z,-20.28
2023-12-22T08:25:24.367Z,-20.46
2023-12-22T08:28:28.061Z,-20.44
2023-12-22T08:31:32.085Z,-20.42
2023-12-22T08:34:36.411Z,-20.57
2023-12-22T08:37:40.723Z,-20.57
2023-12-22T08:40:44.947Z,-20.59
2023-12-22T08:43:48.668Z,-20.68
2023-12-22T08:46:52.401Z,-20.67
2023-12-22T08:49:56.613Z,-20.72
2023-12-22T08:53:00.426Z,-20.76
2023-12-22T08:56:05.163Z,-20.72
2023-12-22T08:59:10.608Z,-20.83
2023-12-22T09:02:14.665Z,-20.81
2023-12-22T09:05:19.950Z,-20.82
2023-12-22T09:08:24.045Z,-20.78
2023-12-22T09:11:27.650Z,-20.77
2023-12-22T09:14:32.039Z,-20.77
2023-12-22T09:17:36.329Z,-20.82
2023-12-22T09:20:40.428Z,-20.83
2023-12-22T09:23:46.328Z,-21.04
2023-12-22T09:26:51.381Z,-21.25
2023-12-22T09:29:55.065Z,-21.31
2023-12-22T09:32:59.044Z,-21.23
2023-12-22T09:36:04.095Z,-21.16
2023-12-22T09:39:08.562Z,-21.13
2023-12-22T09:42:12.218Z,-21.19
2023-12-22T09:45:22.241Z,-21.28
2023-12-22T09:48:30.155Z,-21.25
2023-12-22T09:51:35.454Z,-21.19
2023-12-22T09:54:39.312Z,-21.05
2023-12-22T09:57:45.079Z,-21.04
2023-12-22T10:00:50.212Z,-21.03
2023-12-22T10:03:54.202Z,-21.16
2023-12-22T10:07:03.505Z,-21.30
2023-12-22T10:10:09.603Z,-21.31
2023-12-22T10:13:14.216Z,-21.42
2023-12-22T10:16:19.378Z,-21.50
2023-12-22T10:19:23.080Z,-21.55
2023-12-22T10:22:26.478Z,-21.52
2023-12-22T10:25:34.266Z,-21.53
2023-12-22T10:28:38.505Z,-21.54
2023-12-22T10:31:42.883Z,-21.40
2023-12-22T10:34:45.834Z,-21.37
2023-12-22T10:37:49.707Z,-21.42
2023-12-22T10:40:53.938Z,-21.40
2023-12-22T10:43:57.854Z,-21.57
2023-12-22T10:47:03.141Z,-21.74
2023-12-22T10:50:07.445Z,-21.87
2023-12-22T10:53:16.201Z,-21.95
2023-12-22T10:56:23.605Z,-22.07
2023-12-22T10:59:34.033Z,-22.25
2023-12-22T11:02:45.259Z,-22.27
2023-12-22T11:05:50.605Z,-22.39
2023-12-22T11:08:55.403Z,-22.45
2023-12-22T11:11:59.104Z,-22.49
2023-12-22T11:15:05.029Z,-22.40
2023-12-22T11:18:10.633Z,-22.49
2023-12-22T11:21:15.923Z,-22.65
2023-12-22T11:24:21.233Z,-22.57
2023-12-22T11:27:27.356Z,-22.54
2023-12-22T11:30:33.046Z,-22.70
2023-12-22T11:33:39.479Z,-22.78
2023-12-22T11:36:47.666Z,-22.78
2023-12-22T11:39:51.739Z,-22.94
2023-12-22T11:42:56.745Z,-23.00
2023-12-22T11:46:05.232Z,-22.93
2023-12-22T11:49:09.646Z,-23.07
2023-12-22T11:52:15.005Z,-23.07
2023-12-22T11:55:19.406Z,-22.94
2023-12-22T11:58:55.957Z,-23.08
2023-12-22T12:02:01.363Z,-23.08
2023-12-22T12:05:08.861Z,-23.21
2023-12-22T12:08:13.022Z,-23.10
2023-12-22T12:11:16.796Z,-23.16
2023-12-22T12:14:35.110Z,-23.21
2023-12-22T12:17:44.055Z,-23.36
2023-12-22T12:20:47.812Z,-23.52
2023-12-22T12:23:51.891Z,-23.52
2023-12-22T12:26:55.810Z,-23.54
2023-12-22T12:30:00.720Z,-23.50
2023-12-22T12:33:10.137Z,-23.41
2023-12-22T12:36:15.523Z,-23.44
2023-12-22T12:39:22.416Z,-23.53
2023-12-22T12:42:26.156Z,-23.49
2023-12-22T12:45:29.221Z,-23.42
2023-12-22T12:48:33.024Z,-23.47
2023-12-22T12:51:40.983Z,-23.63
2023-12-22T12:54:45.113Z,-23.80
2023-12-22T12:57:53.508Z,-23.92
2023-12-22T13:01:09.762Z,-23.99
2023-12-22T13:04:15.353Z,-23.77
2023-12-22T13:07:28.582Z,-23.63
2023-12-22T13:10:34.532Z,-23.81
2023-12-22T13:13:44.852Z,-23.88
2023-12-22T13:16:49.052Z,-23.96
2023-12-22T13:19:53.261Z,-23.95
2023-12-22T13:22:57.459Z,-23.88
2023-12-22T13:26:01.467Z,-24.10
2023-12-22T13:29:05.833Z,-24.00
2023-12-22T13:32:09.734Z,-24.04
2023-12-22T13:35:17.071Z,-24.06
2023-12-22T13:38:20.852Z,-24.33
2023-12-22T13:41:24.811Z,-24.42
2023-12-22T13:44:28.614Z,-24.43
2023-12-22T13:47:33.017Z,-24.62
2023-12-22T13:50:38.125Z,-24.51
2023-12-22T13:53:52.485Z,-24.45
2023-12-22T13:56:57.072Z,-24.31
2023-12-22T14:00:00.805Z,-24.34
2023-12-22T14:03:07.303Z,-24.17
2023-12-22T14:06:11.405Z,-24.20
2023-12-22T14:09:14.816Z,-24.52
2023-12-22T14:12:24.505Z,-24.41
2023-12-22T14:15:38.052Z,-24.20
2023-12-22T14:18:48.460Z,-24.12
2023-12-22T14:21:51.600Z,-24.01
2023-12-22T14:24:55.627Z,-24.16
2023-12-22T14:28:00.790Z,-24.37
2023-12-22T14:31:05.384Z,-24.31
2023-12-22T14:34:09.771Z,-24.58
2023-12-22T14:37:13.118Z,-24.77
2023-12-22T14:40:16.470Z,-24.46
2023-12-22T14:43:20.582Z,-24.25
2023-12-22T14:46:25.511Z,-24.46
2023-12-22T14:49:29.024Z,-24.54
2023-12-22T14:52:36.689Z,-24.42
2023-12-22T14:55:42.495Z,-24.18
2023-12-22T14:58:46.341Z,-24.13
2023-12-22T15:01:50.656Z,-24.41
2023-12-22T15:04:55.724Z,-24.33
2023-12-22T15:08:00.710Z,-24.51
2023-12-22T15:11:04.733Z,-24.59
2023-12-22T15:14:08.467Z,-24.45
2023-12-22T15:17:13.781Z,-24.48
2023-12-22T15:20:17.953Z,-24.47
2023-12-22T15:23:21.572Z,-24.38
2023-12-22T15:26:27.797Z,-24.51
2023-12-22T15:29:31.504Z,-24.49
2023-12-22T15:32:36.341Z,-24.35
2023-12-22T15:35:40.021Z,-24.42
2023-12-22T15:38:44.274Z,-24.40
2023-12-22T15:41:47.813Z,-24.26
2023-12-22T15:44:51.972Z,-24.53
2023-12-22T15:47:55.600Z,-24.58
2023-12-22T15:50:59.668Z,-24.73
2023-12-22T15:54:04.422Z,-24.87
2023-12-22T15:57:07.855Z,-25.11
2023-12-22T16:00:12.624Z,-25.23
2023-12-22T16:03:16.457Z,-25.29
2023-12-22T16:06:22.377Z,-25.14
2023-12-22T16:09:26.441Z,-25.04
2023-12-22T16:12:30.077Z,-25.20
2023-12-22T16:15:34.411Z,-25.19
2023-12-22T16:18:40.205Z,-24.95
2023-12-22T16:21:48.879Z,-25.00
2023-12-22T16:24:52.352Z,-25.00
2023-12-22T16:27:56.388Z,-25.15
2023-12-22T16:30:59.441Z,-25.33
2023-12-22T16:34:04.548Z,-25.33
2023-12-22T16:37:08.402Z,-25.21
2023-12-22T16:40:12.941Z,-25.36
2023-12-22T16:43:16.495Z,-25.47
2023-12-22T16:46:20.350Z,-25.40
2023-12-22T16:49:23.348Z,-25.33
2023-12-22T16:52:27.971Z,-25.28
2023-12-22T16:55:31.611Z,-25.19
2023-12-22T16:58:35.786Z,-25.01
2023-12-22T17:01:41.251Z,-24.91
2023-12-22T17:04:47.977Z,-24.94
2023-12-22T17:07:51.446Z,-24.99
2023-12-22T17:10:55.717Z,-24.96
2023-12-22T17:13:59.378Z,-24.86
2023-12-22T17:17:02.813Z,-24.85
2023-12-22T17:20:06.846Z,-24.84
2023-12-22T17:23:10.076Z,-24.77
2023-12-22T17:26:20.568Z,-24.94
2023-12-22T17:29:23.797Z,-25.08
2023-12-22T17:32:27.004Z,-25.25
2023-12-22T17:35:31.118Z,-25.47
2023-12-22T17:38:34.925Z,-25.66
2023-12-22T17:41:38.127Z,-25.75
2023-12-22T17:44:41.158Z,-25.56
2023-12-22T17:47:44.573Z,-25.32
2023-12-22T17:50:47.613Z,-25.35
2023-12-22T17:53:51.691Z,-25.42
2023-12-22T17:56:54.929Z,-25.54
2023-12-22T17:59:57.867Z,-25.75
2023-12-22T18:03:00.793Z,-25.77
2023-12-22T18:06:04.686Z,-25.71
2023-12-22T18:09:08.628Z,-25.75
2023-12-22T18:12:11.572Z,-25.74
2023-12-22T18:15:15.067Z,-25.86
2023-12-22T18:18:18.727Z,-25.78
2023-12-22T18:21:22.941Z,-25.71
2023-12-22T18:24:26.628Z,-25.92
2023-12-22T18:27:30.284Z,-25.98
2023-12-22T18:30:33.220Z,-25.79
2023-12-22T18:33:36.327Z,-25.81
2023-12-22T18:36:40.112Z,-25.59
2023-12-22T18:39:43.733Z,-25.58
2023-12-22T18:42:47.018Z,-25.83
2023-12-22T18:45:50.411Z,-25.89
2023-12-22T18:48:54.828Z,-25.95
2023-12-22T18:51:58.698Z,-26.05
2023-12-22T18:55:01.663Z,-26.10
2023-12-22T18:58:05.384Z,-26.28
2023-12-22T19:01:15.088Z,-26.34
2023-12-22T19:04:27.096Z,-26.37
2023-12-22T19:07:32.391Z,-26.50
2023-12-22T19:10:36.202Z,-26.49
2023-12-22T19:13:39.823Z,-26.28
2023-12-22T19:16:43.422Z,-26.17
2023-12-22T19:19:46.379Z,-26.22
2023-12-22T19:22:50.598Z,-26.26
2023-12-22T19:25:54.392Z,-26.50
2023-12-22T19:28:57.746Z,-26.69
2023-12-22T19:32:01.800Z,-26.78
2023-12-22T19:35:06.416Z,-26.80
2023-12-22T19:38:09.851Z,-26.71
2023-12-22T19:41:15.302Z,-26.59
2023-12-22T19:44:19.587Z,-26.76
2023-12-22T19:47:23.357Z,-26.81
2023-12-22T19:50:30.063Z,-26.70
2023-12-22T19:53:33.013Z,-26.55
2023-12-22T19:56:36.485Z,-26.71
2023-12-22T19:59:40.515Z,-26.62
2023-12-22T20:02:43.494Z,-26.56
2023-12-22T20:05:47.844Z,-26.50
2023-12-22T20:08:51.505Z,-26.39
2023-12-22T20:11:55.538Z,-26.56
2023-12-22T20:14:58.389Z,-26.66
2023-12-22T20:18:02.147Z,-26.58
2023-12-22T20:21:06.371Z,-26.57
2023-12-22T20:24:10.355Z,-26.48
2023-12-22T20:27:14.254Z,-26.67
2023-12-22T20:30:17.667Z,-26.81
2023-12-22T20:33:20.673Z,-26.92
2023-12-22T20:36:24.046Z,-26.95
2023-12-22T20:39:27.663Z,-26.83
2023-12-22T20:42:31.263Z,-26.94
2023-12-22T20:45:34.312Z,-26.86
2023-12-22T20:48:37.769Z,-26.74
2023-12-22T20:51:45.064Z,-26.79
2023-12-22T20:54:47.965Z,-26.91
2023-12-22T20:57:51.607Z,-26.94
2023-12-22T21:00:55.640Z,-27.11
2023-12-22T21:03:59.246Z,-27.06
2023-12-22T21:07:03.258Z,-27.05
2023-12-22T21:10:11.254Z,-27.05
2023-12-22T21:13:15.678Z,-26.64
2023-12-22T21:16:18.772Z,-26.74
2023-12-22T21:19:22.455Z,-26.92
2023-12-22T21:22:26.167Z,-27.11
2023-12-22T21:25:30.659Z,-27.00
2023-12-22T21:28:35.151Z,-26.94
2023-12-22T21:31:44.655Z,-26.92
2023-12-22T21:34:48.421Z,-27.06
2023-12-22T21:37:54.393Z,-26.99
2023-12-22T21:40:58.147Z,-27.05
2023-12-22T21:44:01.834Z,-26.83
2023-12-22T21:47:05.678Z,-26.68
2023-12-22T21:50:09.826Z,-26.74
2023-12-22T21:53:14.796Z,-26.67
2023-12-22T21:56:23.053Z,-26.70
2023-12-22T21:59:28.388Z,-26.74
2023-12-22T22:02:31.996Z,-26.74
2023-12-22T22:05:35.545Z,-26.90
2023-12-22T22:08:38.791Z,-27.35
2023-12-22T22:11:42.331Z,-27.67
2023-12-22T22:14:46.043Z,-27.81
2023-12-22T22:17:50.209Z,-27.77
2023-12-22T22:20:54.043Z,-27.71
2023-12-22T22:23:59.045Z,-27.66
2023-12-22T22:27:02.930Z,-27.62
2023-12-22T22:30:06.634Z,-27.71
2023-12-22T22:33:10.397Z,-27.62
2023-12-22T22:36:15.670Z,-27.73
2023-12-22T22:39:19.343Z,-27.60
2023-12-22T22:42:23.247Z,-27.88
2023-12-22T22:45:27.045Z,-27.97
2023-12-22T22:48:30.937Z,-27.69
2023-12-22T22:51:34.334Z,-27.65
2023-12-22T22:54:38.358Z,-27.88
2023-12-22T22:57:42.038Z,-27.97
2023-12-22T23:00:45.730Z,-28.12
2023-12-22T23:03:51.419Z,-27.97
2023-12-22T23:06:57.161Z,-27.89
2023-12-22T23:10:00.654Z,-27.66
2023-12-22T23:13:04.218Z,-27.63
2023-12-22T23:16:09.693Z,-27.59
2023-12-22T23:19:13.359Z,-27.51
2023-12-22T23:22:16.365Z,-27.46
2023-12-22T23:25:19.355Z,-27.41
2023-12-22T23:28:22.329Z,-27.35
2023-12-22T23:31:25.196Z,-27.28
2023-12-22T23:34:29.144Z,-27.29
2023-12-22T23:37:32.804Z,-27.30
2023-12-22T23:40:37.034Z,-27.30
2023-12-22T23:43:42.151Z,-27.48
2023-12-22T23:46:46.115Z,-27.20
2023-12-22T23:49:49.686Z,-27.17
2023-12-22T23:52:53.415Z,-27.21
2023-12-22T23:55:57.098Z,-27.21
2023-12-22T23:59:00.292Z,-27.36
